Time;durP1;ratioP1;P1;durP2;ratioP2;P2;SDS_P1;SDS_P2;PMS_P1;PMS_P2;Temp;Humidity;BMP_temperature;BMP_pressure;BME280_temperature;BME280_humidity;BME280_pressure;Samples;Min_cycle;Max_cycle;Signal;HPM_P1;HPM_P2
2023/09/18 06:08:53;;;;;;;1.37;0.40;;;;;;;;;;6187256;23;20032;31
2023/09/18 10:30:25;;;;;;;1.42;0.38;;;;;;;;;;6186750;23;20068;-81
2023/09/18 10:32:51;;;;;;;1.48;0.40;;;;;;;;;;6184448;23;20063;-81
2023/09/18 10:35:17;;;;;;;1.10;0.30;;;;;;;;;;6184553;23;20411;-81
2023/09/18 10:37:44;;;;;;;4.10;0.30;;;;;;;;;;6185280;23;20745;-82
2023/09/18 10:40:10;;;;;;;1.73;0.75;;;;;;;;;;6187542;23;20005;-82
2023/09/18 10:42:39;;;;;;;1.65;0.43;;;;;;;;;;6188423;23;20005;-82
2023/09/18 10:45:07;;;;;;;2.15;1.08;;;;;;;;;;6188146;23;20012;-82
2023/09/18 10:47:33;;;;;;;6.43;1.73;;;;;;;;;;6186762;23;20324;-83
2023/09/18 10:50:00;;;;;;;10.63;3.67;;;;;;;;;;6186642;23;20356;-82
2023/09/18 10:52:27;;;;;;;8.98;4.13;;;;;;;;;;6186190;23;20012;-82
2023/09/18 10:54:53;;;;;;;7.60;2.83;;;;;;;;;;6186508;23;20031;-82
2023/09/18 11:54:25;;;;;;;4.03;0.55;;;;;;;;;;6195796;23;20325;-83
2023/09/18 12:05:58;;;;;;;;;;;;;;;;;;;;;
2023/09/18 12:08:30;;;;;;;0.93;0.35;;;;;;;;;;6187016;23;20100;-83
2023/09/18 12:10:59;;;;;;;;;;;;;;;;;;6187064;23;20028;-83
2023/09/18 12:13:28;;;;;;;0.40;0.20;;;;;;;;;;6186756;23;20371;-83
2023/09/18 12:16:04;;;;;;;1.08;0.20;;;;;;;;;;6209987;23;20096;-82
2023/09/18 12:19:10;;;;;;;0.30;0.13;;;;;;;;;;6210086;23;20440;-83
2023/09/18 12:27:26;;;;;;;0.77;0.20;;;;;;;;;;6185764;23;20029;-82
2023/09/18 12:47:06;;;;;;;;;;;;;;;;;;;;;
2023/09/18 12:49:46;;;;;;;2.58;0.40;;;;;;;;;;6217662;23;20410;-85
2023/09/18 12:52:22;;;;;;;18.02;0.55;;;;;;;;;;6191862;23;20009;-84
2023/09/18 12:54:58;;;;;;;1.60;0.30;;;;;;;;;;6189890;23;20064;-83
2023/09/18 12:57:33;;;;;;;1.20;0.30;;;;;;;;;;6192046;23;20009;-84
2023/09/18 13:00:09;;;;;;;1.45;0.30;;;;;;;;;;6191366;23;20012;-84
2023/09/18 13:02:55;;;;;;;;;;;;;;;;;;;;;
2023/09/18 13:05:37;;;;;;;1.33;0.25;;;;;;;;;;6223617;23;20459;-84
2023/09/18 13:08:20;;;;;;;2.67;0.15;;;;;;;;;;6199317;23;20039;-84
2023/09/18 13:10:46;;;;;;;;;;;;;;;;;;6193598;23;20009;-84
2023/09/18 13:13:26;;;;;;;3.65;0.20;;;;;;;;;;6219229;23;19907;-84
2023/09/18 13:18:41;;;;;;;2.10;0.22;;;;;;;;;;6194783;23;20099;-84
2023/09/18 13:21:36;;;;;;;1.65;0.17;;;;;;;;;;6192915;23;20448;-85
2023/09/18 13:24:05;;;;;;;0.20;0.10;;;;;;;;;;6191931;23;20023;-84
2023/09/18 13:26:31;;;;;;;2.35;0.30;;;;;;;;;;6191786;23;20320;-83
2023/09/18 13:29:00;;;;;;;0.45;0.28;;;;;;;;;;6190029;23;20005;-84
2023/09/18 13:31:26;;;;;;;0.63;0.20;;;;;;;;;;6190300;23;20058;-83
2023/09/18 13:33:53;;;;;;;2.90;0.20;;;;;;;;;;6216992;23;20047;-83
2023/09/18 13:36:19;;;;;;;1.75;0.30;;;;;;;;;;6189758;23;20419;-83
2023/09/18 13:38:45;;;;;;;0.20;0.00;;;;;;;;;;6190834;23;20009;-83
2023/09/18 13:41:19;;;;;;;1.05;0.10;;;;;;;;;;6190546;23;20008;-83
2023/09/18 13:43:47;;;;;;;0.10;0.03;;;;;;;;;;6190678;23;20476;-84
2023/09/18 13:46:13;;;;;;;0.30;0.00;;;;;;;;;;6216928;23;20379;-83
2023/09/18 13:48:39;;;;;;;1.13;0.20;;;;;;;;;;6190866;23;20009;-83
2023/09/18 13:51:09;;;;;;;0.20;0.10;;;;;;;;;;6190523;23;20009;-83
2023/09/18 13:53:41;;;;;;;0.95;0.35;;;;;;;;;;6217788;23;20340;-83
2023/09/18 13:56:07;;;;;;;0.32;0.10;;;;;;;;;;6190812;23;20008;-83
2023/09/18 13:58:41;;;;;;;0.75;0.40;;;;;;;;;;6190415;23;20289;-83
2023/09/18 14:01:09;;;;;;;0.40;0.15;;;;;;;;;;6217239;23;20001;-83
2023/09/18 14:03:36;;;;;;;1.35;0.20;;;;;;;;;;6191431;23;20309;-82
2023/09/18 14:06:05;;;;;;;2.08;0.40;;;;;;;;;;6218533;23;20005;-83
2023/09/18 14:08:31;;;;;;;0.22;0.10;;;;;;;;;;6218110;23;20038;-82
2023/09/18 14:10:57;;;;;;;0.75;0.17;;;;;;;;;;6191777;23;20019;-84
2023/09/18 14:13:23;;;;;;;0.75;0.20;;;;;;;;;;6190194;23;20012;-85
2023/09/18 14:15:49;;;;;;;1.10;0.35;;;;;;;;;;6189663;23;20643;-82
2023/09/18 14:18:15;;;;;;;1.48;0.20;;;;;;;;;;6189564;23;20025;-83
2023/09/18 14:20:41;;;;;;;1.02;0.22;;;;;;;;;;6215707;23;20008;-81
2023/09/18 14:23:07;;;;;;;1.25;0.32;;;;;;;;;;6188775;23;20313;-81
2023/09/18 14:25:33;;;;;;;0.05;0.00;;;;;;;;;;6189315;23;20008;-81
2023/09/18 14:27:59;;;;;;;0.47;0.00;;;;;;;;;;6215975;23;20013;-83
2023/09/18 14:30:31;;;;;;;0.77;0.10;;;;;;;;;;6189438;23;20017;-83
2023/09/18 14:32:57;;;;;;;0.03;0.00;;;;;;;;;;6214664;23;20035;-82
2023/09/18 14:35:23;;;;;;;1.35;0.10;;;;;;;;;;6188122;23;20066;-81
2023/09/18 14:37:49;;;;;;;0.50;0.10;;;;;;;;;;6215419;23;20011;-79
2023/09/18 14:40:15;;;;;;;2.00;0.25;;;;;;;;;;6189106;23;20009;-81
2023/09/18 14:42:41;;;;;;;2.42;0.43;;;;;;;;;;6215996;23;20004;-80
2023/09/18 14:45:08;;;;;;;0.85;0.10;;;;;;;;;;6215421;23;20062;-79
2023/09/18 14:47:34;;;;;;;0.88;0.20;;;;;;;;;;6215635;23;20055;-80
2023/09/18 14:50:01;;;;;;;1.98;0.40;;;;;;;;;;6216109;23;20012;-81
2023/09/18 14:52:27;;;;;;;0.70;0.10;;;;;;;;;;6215758;23;20032;-80
2023/09/18 14:54:53;;;;;;;0.20;0.00;;;;;;;;;;6216196;23;20039;-80
2023/09/18 14:57:19;;;;;;;0.10;0.10;;;;;;;;;;6213919;23;20078;-80
2023/09/18 14:59:47;;;;;;;1.02;0.22;;;;;;;;;;6214580;23;20008;-80
2023/09/18 15:02:15;;;;;;;0.43;0.08;;;;;;;;;;6186680;23;20036;-80
2023/09/18 15:04:41;;;;;;;0.57;0.10;;;;;;;;;;6188102;23;20420;-80
2023/09/18 15:07:07;;;;;;;2.75;0.10;;;;;;;;;;6215567;23;20013;-80
2023/09/18 15:09:33;;;;;;;1.65;0.10;;;;;;;;;;6216457;23;20008;-80
2023/09/18 15:11:59;;;;;;;0.35;0.00;;;;;;;;;;6216162;23;20332;-80
2023/09/18 15:14:25;;;;;;;1.23;0.25;;;;;;;;;;6217393;23;20005;-80
2023/09/18 15:16:51;;;;;;;0.05;0.05;;;;;;;;;;6216115;23;20397;-80
2023/09/18 15:19:17;;;;;;;0.17;0.10;;;;;;;;;;6217021;23;20019;-80
2023/09/18 15:21:43;;;;;;;8.73;0.20;;;;;;;;;;6216526;23;20001;-82
2023/09/18 15:24:10;;;;;;;0.00;0.00;;;;;;;;;;6216221;23;20007;-81
2023/09/18 15:26:36;;;;;;;0.15;0.00;;;;;;;;;;6190334;23;20054;-82
2023/09/18 15:29:03;;;;;;;0.20;0.00;;;;;;;;;;6190265;23;20555;-82
2023/09/18 15:31:29;;;;;;;0.88;0.03;;;;;;;;;;6190421;23;20009;-83
2023/09/18 15:33:55;;;;;;;0.00;0.00;;;;;;;;;;6189879;23;20027;-83
2023/09/18 15:39:26;;;;;;;1.27;0.10;;;;;;;;;;6232837;23;20059;-84
2023/09/18 15:41:54;;;;;;;2.65;0.10;;;;;;;;;;6208105;23;20009;-86
2023/09/18 15:44:20;;;;;;;0.63;0.10;;;;;;;;;;6205340;23;20003;-85
2023/09/18 15:46:46;;;;;;;3.03;0.47;;;;;;;;;;6196530;23;20019;-85
2023/09/18 15:49:12;;;;;;;0.10;0.00;;;;;;;;;;6198481;23;20398;-88
2023/09/18 15:51:38;;;;;;;4.47;0.10;;;;;;;;;;6195219;23;20017;-84
2023/09/18 15:54:08;;;;;;;0.25;0.10;;;;;;;;;;6193865;23;20016;-88
2023/09/18 15:56:44;;;;;;;0.10;0.10;;;;;;;;;;6196105;23;20071;-87
2023/09/18 16:05:07;;;;;;;0.13;0.10;;;;;;;;;;6151619;23;20026;-87
2023/09/18 16:13:57;;;;;;;;;;;;;;;;;;;;;
2023/09/18 16:16:47;;;;;;;1.00;0.10;;;;;;;;;;6195186;23;20102;-84
2023/09/18 16:19:14;;;;;;;0.95;0.47;;;;;;;;;;6143618;22;20029;-85
2023/09/18 16:21:40;;;;;;;0.28;0.13;;;;;;;;;;6155274;23;20073;-84
2023/09/18 16:24:08;;;;;;;5.13;0.52;;;;;;;;;;6151504;23;20041;-86
2023/09/18 16:26:43;;;;;;;1.42;0.20;;;;;;;;;;6152262;23;20094;-85
2023/09/18 16:32:34;;;;;;;0.30;0.15;;;;;;;;;;6154494;23;20010;-86
2023/09/18 16:35:34;;;;;;;0.43;0.30;;;;;;;;;;6210523;23;20012;-86
2023/09/18 16:43:56;;;;;;;1.20;0.10;;;;;;;;;;6175575;23;20015;-84
2023/09/18 16:56:48;;;;;;;1.60;0.20;;;;;;;;;;6157797;23;20722;-85
2023/09/18 17:09:41;;;;;;;1.23;0.20;;;;;;;;;;6173482;22;20429;-85
2023/09/18 17:16:19;;;;;;;3.08;0.70;;;;;;;;;;6183013;23;20028;-85
2023/09/18 17:25:38;;;;;;;0.73;0.10;;;;;;;;;;6127502;23;20054;-85
2023/09/18 17:28:04;;;;;;;0.73;0.28;;;;;;;;;;6142424;23;20079;-84
2023/09/18 17:30:39;;;;;;;0.30;0.10;;;;;;;;;;6194487;23;20005;-85
2023/09/18 17:33:26;;;;;;;0.75;0.30;;;;;;;;;;6204694;22;20059;-85
2023/09/18 17:43:15;;;;;;;2.63;0.63;;;;;;;;;;6191236;23;20035;-85
